Time;durP1;ratioP1;P1;durP2;ratioP2;P2;SDS_P1;SDS_P2;PMS_P1;PMS_P2;Temp;Humidity;BMP_temperature;BMP_pressure;BME280_temperature;BME280_humidity;BME280_pressure;Samples;Min_cycle;Max_cycle;Signal;HPM_P1;HPM_P2
2023/01/16 00:01:35;;;;;;;0.00;0.00;;;5.20;99.90;;;;;;5015457;28;20229;-67
2023/01/16 00:04:00;;;;;;;0.00;0.00;;;5.20;99.90;;;;;;5015432;28;20189;-67
2023/01/16 00:06:26;;;;;;;0.00;0.00;;;5.20;99.90;;;;;;5015132;28;20574;-67
2023/01/16 00:08:51;;;;;;;0.00;0.00;;;5.20;99.90;;;;;;5015259;28;20242;-67
2023/01/16 00:11:17;;;;;;;0.00;0.00;;;5.20;99.90;;;;;;5014873;28;20185;-67
2023/01/16 00:13:42;;;;;;;0.00;0.00;;;5.30;99.90;;;;;;5011333;28;20176;-67
2023/01/16 00:16:08;;;;;;;0.00;0.00;;;5.30;99.90;;;;;;4995645;28;20199;-67
2023/01/16 00:18:34;;;;;;;0.00;0.00;;;5.30;99.90;;;;;;5005423;28;20267;-67
2023/01/16 00:20:59;;;;;;;0.00;0.00;;;5.30;99.90;;;;;;5015079;28;20179;-67
2023/01/16 00:23:25;;;;;;;0.00;0.00;;;5.40;99.90;;;;;;5014710;28;20171;-67
2023/01/16 00:25:51;;;;;;;0.00;0.00;;;5.40;99.90;;;;;;5014751;28;20215;-67
2023/01/16 00:28:16;;;;;;;0.00;0.00;;;5.40;99.90;;;;;;5014766;28;20186;-67
2023/01/16 00:30:42;;;;;;;0.00;0.00;;;5.40;99.90;;;;;;5004934;28;20268;-67
2023/01/16 00:33:08;;;;;;;0.00;0.00;;;5.40;99.90;;;;;;4995115;28;20262;-67
2023/01/16 00:35:33;;;;;;;0.00;0.00;;;5.40;99.90;;;;;;4995068;28;20710;-67
2023/01/16 00:37:59;;;;;;;0.00;0.00;;;5.40;99.90;;;;;;4995206;28;20171;-67
2023/01/16 00:40:25;;;;;;;0.00;0.00;;;5.40;99.90;;;;;;4994885;28;20512;-67
2023/01/16 00:42:50;;;;;;;0.00;0.00;;;5.30;99.90;;;;;;4995474;28;20662;-67
2023/01/16 00:45:16;;;;;;;0.00;0.00;;;5.30;99.90;;;;;;5014496;28;20175;-67
2023/01/16 00:47:42;;;;;;;0.00;0.00;;;5.30;99.90;;;;;;5014500;28;20174;-67
2023/01/16 00:50:08;;;;;;;0.00;0.00;;;5.30;99.90;;;;;;5014172;28;20221;-67
2023/01/16 00:52:34;;;;;;;0.00;0.00;;;5.30;99.90;;;;;;4996225;28;20516;-67
2023/01/16 00:54:59;;;;;;;0.10;0.10;;;5.20;99.90;;;;;;5014374;28;20233;-67
2023/01/16 00:57:26;;;;;;;0.00;0.00;;;5.20;99.90;;;;;;5014137;28;20182;-67
2023/01/16 00:59:51;;;;;;;0.00;0.00;;;5.20;99.90;;;;;;5014378;28;20613;-67
2023/01/16 01:02:17;;;;;;;0.00;0.00;;;5.10;99.90;;;;;;5014181;28;20666;-67
2023/01/16 01:04:42;;;;;;;0.00;0.00;;;5.10;99.90;;;;;;5014087;28;20194;-67
2023/01/16 01:07:08;;;;;;;0.00;0.00;;;5.10;99.90;;;;;;5014006;28;20233;-67
2023/01/16 01:09:33;;;;;;;0.00;0.00;;;5.10;99.90;;;;;;5014051;28;20221;-67
2023/01/16 01:12:00;;;;;;;0.00;0.00;;;5.10;99.90;;;;;;5014224;28;20182;-67
2023/01/16 01:14:25;;;;;;;0.08;0.08;;;5.10;99.90;;;;;;5013488;28;20182;-67
2023/01/16 01:16:51;;;;;;;0.00;0.00;;;5.10;99.90;;;;;;5009193;28;20175;-67
2023/01/16 01:19:17;;;;;;;0.00;0.00;;;5.10;99.90;;;;;;4994367;28;20278;-67
2023/01/16 01:21:43;;;;;;;0.00;0.00;;;5.10;99.90;;;;;;5005404;28;20245;-67
2023/01/16 01:24:09;;;;;;;0.00;0.00;;;5.10;99.90;;;;;;5013716;28;20179;-67
2023/01/16 01:26:35;;;;;;;0.00;0.00;;;5.00;99.90;;;;;;5013712;28;20702;-67
2023/01/16 01:29:00;;;;;;;0.00;0.00;;;5.00;99.90;;;;;;5009815;28;20265;-67
2023/01/16 01:31:26;;;;;;;0.00;0.00;;;4.90;99.90;;;;;;5005924;28;20191;-66
2023/01/16 01:33:52;;;;;;;0.00;0.00;;;4.90;99.90;;;;;;4995387;28;20175;-67
2023/01/16 01:36:17;;;;;;;0.00;0.00;;;4.90;99.90;;;;;;5013594;28;20206;-67
2023/01/16 01:38:45;;;;;;;0.00;0.00;;;4.90;99.90;;;;;;5013319;28;20197;-67
2023/01/16 01:41:13;;;;;;;0.00;0.00;;;4.80;99.90;;;;;;5013227;28;20209;-67
2023/01/16 01:43:48;;;;;;;0.00;0.00;;;4.80;99.90;;;;;;5013316;28;20274;-67
2023/01/16 01:46:40;;;;;;;0.00;0.00;;;4.80;99.90;;;;;;5013338;28;20698;-67
2023/01/16 01:49:25;;;;;;;0.00;0.00;;;4.80;99.90;;;;;;5013184;28;20215;-67
2023/01/16 01:51:52;;;;;;;0.00;0.00;;;4.70;99.90;;;;;;5013522;28;20180;-67
2023/01/16 01:54:24;;;;;;;0.00;0.00;;;4.70;99.90;;;;;;5012927;28;20218;-66
2023/01/16 01:57:01;;;;;;;0.00;0.00;;;4.80;99.90;;;;;;5012924;28;20210;-67
2023/01/16 01:59:37;;;;;;;0.00;0.00;;;4.80;99.90;;;;;;5004658;28;20194;-67
2023/01/16 02:02:05;;;;;;;0.00;0.00;;;4.80;99.90;;;;;;5011261;28;20182;-67
2023/01/16 02:04:36;;;;;;;0.00;0.00;;;4.80;99.90;;;;;;4991527;28;20191;-67
2023/01/16 02:07:05;;;;;;;0.00;0.00;;;4.80;99.90;;;;;;5007694;28;20209;-67
2023/01/16 02:09:30;;;;;;;0.00;0.00;;;4.80;99.90;;;;;;5010445;28;20210;-67
2023/01/16 02:12:07;;;;;;;0.00;0.00;;;4.80;99.90;;;;;;5007752;28;20698;-67
2023/01/16 02:14:37;;;;;;;0.00;0.00;;;4.90;99.90;;;;;;5012496;28;20179;-67
2023/01/16 02:20:08;;;;;;;0.00;0.00;;;4.80;99.90;;;;;;5012691;28;20784;-67
2023/01/16 02:22:55;;;;;;;0.00;0.00;;;4.80;99.90;;;;;;5011252;28;20297;-67
2023/01/16 02:25:58;;;;;;;0.00;0.00;;;4.80;99.90;;;;;;5012106;28;20184;-67
2023/01/16 02:28:49;;;;;;;0.00;0.00;;;4.80;99.90;;;;;;5012118;28;20266;-66
2023/01/16 02:31:48;;;;;;;0.00;0.00;;;4.80;99.90;;;;;;5012257;28;20210;-67
2023/01/16 02:34:29;;;;;;;0.00;0.00;;;4.80;99.90;;;;;;5012053;28;20233;-67
2023/01/16 02:37:15;;;;;;;0.00;0.00;;;4.80;99.90;;;;;;5012645;28;20163;-67
2023/01/16 02:39:46;;;;;;;0.00;0.00;;;4.80;99.90;;;;;;5012075;28;20265;-67
2023/01/16 02:42:37;;;;;;;0.00;0.00;;;4.80;99.90;;;;;;5012266;28;20182;-67
2023/01/16 02:45:32;;;;;;;0.00;0.00;;;4.80;99.90;;;;;;5012042;28;20183;-67
2023/01/16 02:48:25;;;;;;;0.00;0.00;;;4.80;99.90;;;;;;5011470;28;20179;-66
2023/01/16 02:50:54;;;;;;;0.00;0.00;;;4.80;99.90;;;;;;4992646;28;20192;-67
2023/01/16 02:53:22;;;;;;;0.00;0.00;;;4.80;99.90;;;;;;4993263;28;20216;-67
2023/01/16 02:55:52;;;;;;;0.00;0.00;;;4.70;99.90;;;;;;5011688;28;20178;-68
2023/01/16 02:58:19;;;;;;;0.00;0.00;;;4.70;99.90;;;;;;5011979;28;20577;-67
2023/01/16 03:00:51;;;;;;;0.00;0.00;;;4.60;99.90;;;;;;5011364;28;20199;-67
2023/01/16 03:03:42;;;;;;;0.00;0.00;;;4.60;99.90;;;;;;5011867;28;20183;-67
2023/01/16 03:06:27;;;;;;;0.00;0.00;;;4.50;99.90;;;;;;4992030;28;20184;-67
2023/01/16 03:09:17;;;;;;;0.00;0.00;;;4.50;99.90;;;;;;4996226;28;20577;-67
2023/01/16 03:12:16;;;;;;;0.00;0.00;;;4.40;99.90;;;;;;5010891;28;20187;-67
2023/01/16 03:14:47;;;;;;;0.00;0.00;;;4.40;99.90;;;;;;5002432;28;20229;-68
2023/01/16 03:17:37;;;;;;;0.00;0.00;;;4.40;99.90;;;;;;5009310;28;20650;-66
2023/01/16 03:20:34;;;;;;;0.00;0.00;;;4.40;99.90;;;;;;5007682;28;20178;-67
2023/01/16 03:23:28;;;;;;;0.00;0.00;;;4.40;99.90;;;;;;5004375;28;20253;-67
2023/01/16 03:26:12;;;;;;;0.00;0.00;;;4.50;99.90;;;;;;4990730;28;20235;-67
2023/01/16 03:29:05;;;;;;;0.00;0.00;;;4.50;99.90;;;;;;5011632;28;20284;-67
2023/01/16 03:31:37;;;;;;;0.00;0.00;;;4.50;99.90;;;;;;5011013;28;20261;-67
2023/01/16 03:34:30;;;;;;;0.00;0.00;;;4.50;99.90;;;;;;5011294;28;20210;-67
2023/01/16 03:37:05;;;;;;;0.00;0.00;;;4.50;99.90;;;;;;5011473;28;20692;-67
2023/01/16 03:39:40;;;;;;;0.00;0.00;;;4.60;99.90;;;;;;5011100;28;20269;-67
2023/01/16 03:42:21;;;;;;;0.00;0.00;;;4.60;99.90;;;;;;5011060;28;20178;-66
2023/01/16 03:44:52;;;;;;;0.00;0.00;;;4.60;99.90;;;;;;5011440;28;20617;-67
2023/01/16 03:47:29;;;;;;;0.00;0.00;;;4.60;99.90;;;;;;5011278;28;20175;-66
2023/01/16 03:50:00;;;;;;;0.00;0.00;;;4.60;99.90;;;;;;5011430;28;20574;-67
2023/01/16 03:52:35;;;;;;;0.00;0.00;;;4.70;99.90;;;;;;5011518;28;20170;-67
2023/01/16 03:55:24;;;;;;;0.00;0.00;;;4.70;99.90;;;;;;5011143;28;20233;-67
2023/01/16 03:57:54;;;;;;;0.00;0.00;;;4.70;99.90;;;;;;5011156;28;20265;-67
2023/01/16 04:00:21;;;;;;;0.00;0.00;;;4.70;99.90;;;;;;5011085;28;20183;-67
2023/01/16 04:03:07;;;;;;;0.00;0.00;;;4.70;99.90;;;;;;5010507;28;20230;-68
2023/01/16 04:05:58;;;;;;;0.00;0.00;;;4.70;99.90;;;;;;5010668;28;20182;-67
2023/01/16 04:08:30;;;;;;;0.00;0.00;;;4.70;99.90;;;;;;4998593;28;20186;-67
2023/01/16 04:10:57;;;;;;;0.00;0.00;;;4.80;99.90;;;;;;5011006;28;20202;-67
2023/01/16 04:13:28;;;;;;;0.00;0.00;;;4.80;99.90;;;;;;5010833;28;20187;-67
2023/01/16 04:15:57;;;;;;;0.00;0.00;;;4.80;99.90;;;;;;5010849;28;20183;-68
2023/01/16 04:18:28;;;;;;;0.00;0.00;;;4.80;99.90;;;;;;5010820;28;20329;-67
2023/01/16 04:20:54;;;;;;;0.00;0.00;;;4.80;99.90;;;;;;4992716;28;20182;-68
2023/01/16 04:23:19;;;;;;;0.00;0.00;;;4.80;99.90;;;;;;5010566;28;20179;-67
2023/01/16 04:25:45;;;;;;;0.00;0.00;;;4.80;99.90;;;;;;5010843;28;20673;-67
2023/01/16 04:28:11;;;;;;;0.00;0.00;;;4.80;99.90;;;;;;5014182;28;20187;-67
2023/01/16 04:30:36;;;;;;;0.00;0.00;;;4.80;99.90;;;;;;5013727;28;20225;-67
2023/01/16 04:33:04;;;;;;;0.00;0.00;;;4.80;99.90;;;;;;5013920;28;20613;-67
2023/01/16 04:35:30;;;;;;;0.00;0.00;;;4.80;99.90;;;;;;5013048;28;20214;-67
2023/01/16 04:37:55;;;;;;;0.00;0.00;;;4.80;99.90;;;;;;5014651;28;20175;-66
2023/01/16 04:40:21;;;;;;;0.00;0.00;;;4.80;99.90;;;;;;5014492;28;20197;-66
2023/01/16 04:42:47;;;;;;;0.00;0.00;;;4.80;99.90;;;;;;5009752;28;20245;-67
2023/01/16 04:45:12;;;;;;;0.00;0.00;;;4.80;99.90;;;;;;5006200;28;20816;-67
2023/01/16 04:47:38;;;;;;;0.00;0.00;;;4.80;99.90;;;;;;5011755;28;20183;-67
2023/01/16 04:50:04;;;;;;;0.00;0.00;;;4.80;99.90;;;;;;5013957;28;20727;-67
2023/01/16 04:52:30;;;;;;;0.00;0.00;;;4.80;99.90;;;;;;5014450;28;20490;-66
2023/01/16 04:54:55;;;;;;;0.00;0.00;;;4.80;99.90;;;;;;5014305;28;20710;-66
2023/01/16 04:57:21;;;;;;;0.00;0.00;;;4.80;99.90;;;;;;5013703;28;20178;-65
2023/01/16 04:59:46;;;;;;;0.00;0.00;;;4.80;99.90;;;;;;4996271;28;20973;-71
2023/01/16 05:02:12;;;;;;;0.00;0.00;;;4.70;99.90;;;;;;5013664;28;20630;-67
2023/01/16 05:04:37;;;;;;;0.00;0.00;;;4.70;99.90;;;;;;5006382;28;20182;-79
2023/01/16 05:07:03;;;;;;;0.00;0.00;;;4.70;99.90;;;;;;5013716;28;20182;-70
2023/01/16 05:09:28;;;;;;;0.00;0.00;;;4.70;99.90;;;;;;5014237;28;20233;-67
2023/01/16 05:11:54;;;;;;;0.00;0.00;;;4.70;99.90;;;;;;5013895;28;20362;-70
2023/01/16 05:14:19;;;;;;;0.00;0.00;;;4.70;99.90;;;;;;5009826;28;20261;-69
2023/01/16 05:16:45;;;;;;;0.00;0.00;;;4.70;99.90;;;;;;5006896;28;20211;-69
2023/01/16 05:19:11;;;;;;;0.05;0.05;;;4.80;99.90;;;;;;5013489;28;20183;-66
2023/01/16 05:21:36;;;;;;;0.00;0.00;;;4.80;99.90;;;;;;5013241;28;20195;-68
2023/01/16 05:24:02;;;;;;;0.00;0.00;;;4.80;99.90;;;;;;5029516;28;20248;-67
2023/01/16 05:26:28;;;;;;;0.35;0.35;;;4.90;99.90;;;;;;5030003;28;20218;-67
2023/01/16 05:28:53;;;;;;;0.00;0.00;;;4.90;99.90;;;;;;5013768;28;20314;-68
2023/01/16 05:31:19;;;;;;;0.10;0.10;;;4.90;99.90;;;;;;5013660;28;20186;-69
2023/01/16 05:33:45;;;;;;;0.88;0.85;;;5.00;99.90;;;;;;5012913;28;20601;-64
2023/01/16 05:36:10;;;;;;;0.00;0.00;;;5.30;99.90;;;;;;5012896;28;20190;-68
2023/01/16 05:38:36;;;;;;;0.00;0.00;;;5.20;99.90;;;;;;5012464;28;20194;-67
2023/01/16 05:41:01;;;;;;;0.00;0.00;;;5.10;99.90;;;;;;5013133;28;20183;-67
2023/01/16 05:43:27;;;;;;;0.00;0.00;;;5.00;99.90;;;;;;5012881;28;20273;-67
2023/01/16 05:45:52;;;;;;;0.00;0.00;;;5.00;99.90;;;;;;5013423;28;20171;-66
2023/01/16 05:48:19;;;;;;;0.00;0.00;;;4.90;99.90;;;;;;5013577;28;20175;-66
2023/01/16 05:50:44;;;;;;;0.00;0.00;;;4.80;99.90;;;;;;5013577;28;20175;-66
2023/01/16 05:53:10;;;;;;;0.00;0.00;;;4.80;99.90;;;;;;5013326;28;20261;-66
2023/01/16 05:55:44;;;;;;;0.00;0.00;;;4.80;99.90;;;;;;5013311;28;20179;-66
2023/01/16 05:58:10;;;;;;;0.00;0.00;;;4.70;99.90;;;;;;5013222;28;20634;-66
2023/01/16 06:00:38;;;;;;;0.00;0.00;;;4.70;99.90;;;;;;5013181;28;20179;-66
2023/01/16 06:03:03;;;;;;;0.00;0.00;;;4.60;99.90;;;;;;5013318;28;20189;-66
2023/01/16 06:05:29;;;;;;;0.00;0.00;;;4.60;99.90;;;;;;5012880;28;20175;-66
2023/01/16 06:07:58;;;;;;;0.00;0.00;;;4.50;99.90;;;;;;5013051;28;20179;-66
2023/01/16 06:10:25;;;;;;;0.00;0.00;;;4.40;99.90;;;;;;5012730;28;20211;-66
2023/01/16 06:12:51;;;;;;;0.00;0.00;;;4.40;99.90;;;;;;4995390;28;20540;-66
2023/01/16 06:15:17;;;;;;;0.00;0.00;;;4.30;99.90;;;;;;5013194;28;20178;-66
2023/01/16 06:17:42;;;;;;;0.00;0.00;;;4.30;99.90;;;;;;5013047;28;20277;-66
2023/01/16 06:20:09;;;;;;;0.00;0.00;;;4.20;99.90;;;;;;5013143;28;20677;-66
2023/01/16 06:22:35;;;;;;;0.00;0.00;;;4.20;99.90;;;;;;5012854;28;20574;-66
2023/01/16 06:25:00;;;;;;;0.00;0.00;;;4.20;99.90;;;;;;5012936;28;20195;-66
2023/01/16 06:27:26;;;;;;;0.00;0.00;;;4.20;99.90;;;;;;5005233;28;20183;-66
2023/01/16 06:29:51;;;;;;;0.00;0.00;;;4.20;99.90;;;;;;5012483;28;20573;-66
2023/01/16 06:32:17;;;;;;;0.00;0.00;;;4.20;99.90;;;;;;5025672;28;20182;-66
2023/01/16 06:34:43;;;;;;;0.00;0.00;;;4.10;99.90;;;;;;5026016;28;20245;-67
2023/01/16 06:37:09;;;;;;;0.00;0.00;;;4.10;99.90;;;;;;5012768;28;20360;-66
2023/01/16 06:39:35;;;;;;;0.00;0.00;;;4.10;99.90;;;;;;5004886;28;20190;-66
2023/01/16 06:42:03;;;;;;;0.00;0.00;;;4.10;99.90;;;;;;5012470;28;20179;-66
2023/01/16 06:44:29;;;;;;;0.00;0.00;;;4.00;99.90;;;;;;5012409;28;20190;-66
2023/01/16 06:46:54;;;;;;;0.00;0.00;;;4.00;99.90;;;;;;5012695;28;20178;-66
2023/01/16 06:49:20;;;;;;;0.00;0.00;;;4.00;99.90;;;;;;5011660;28;20293;-66
2023/01/16 06:51:45;;;;;;;0.00;0.00;;;4.00;99.90;;;;;;5012536;28;20642;-66
2023/01/16 06:54:11;;;;;;;0.00;0.00;;;4.00;99.90;;;;;;5012298;28;20706;-66
2023/01/16 06:56:37;;;;;;;0.30;0.30;;;4.00;99.90;;;;;;5012236;28;20202;-66
2023/01/16 06:59:03;;;;;;;0.00;0.00;;;4.00;99.90;;;;;;5012555;28;20258;-67
2023/01/16 07:01:29;;;;;;;0.00;0.00;;;4.00;99.90;;;;;;4994935;28;20647;-66
2023/01/16 07:03:54;;;;;;;0.00;0.00;;;4.00;99.90;;;;;;5012501;28;20175;-66
2023/01/16 07:06:20;;;;;;;0.00;0.00;;;4.00;99.90;;;;;;5012218;28;20189;-66
2023/01/16 07:08:48;;;;;;;0.00;0.00;;;4.00;99.90;;;;;;5012215;28;20222;-67
2023/01/16 07:11:14;;;;;;;0.00;0.00;;;4.00;99.90;;;;;;5012352;28;20179;-67
2023/01/16 07:13:39;;;;;;;0.00;0.00;;;4.00;99.90;;;;;;5012116;28;20193;-67
2023/01/16 07:24:22;;;;;;;0.00;0.00;;;4.00;99.90;;;;;;5012359;28;20182;-66
2023/01/16 07:26:51;;;;;;;0.00;0.00;;;4.00;99.90;;;;;;5011926;28;20257;-66
2023/01/16 07:29:17;;;;;;;0.00;0.00;;;4.00;99.90;;;;;;5012163;28;20215;-66
2023/01/16 07:31:43;;;;;;;0.00;0.00;;;3.90;99.90;;;;;;5011779;28;20190;-66
2023/01/16 07:34:08;;;;;;;0.00;0.00;;;3.90;99.90;;;;;;5012019;28;20273;-66
2023/01/16 07:36:34;;;;;;;0.00;0.00;;;3.90;99.90;;;;;;5011635;28;20266;-66
2023/01/16 07:38:59;;;;;;;0.00;0.00;;;3.80;99.90;;;;;;5004275;28;20263;-66
2023/01/16 07:41:25;;;;;;;0.00;0.00;;;3.90;99.90;;;;;;5011798;28;20267;-66
2023/01/16 07:43:50;;;;;;;0.00;0.00;;;3.90;99.90;;;;;;5011757;28;20610;-67
2023/01/16 07:46:16;;;;;;;0.00;0.00;;;3.90;99.90;;;;;;5011781;28;20186;-66
2023/01/16 07:48:41;;;;;;;0.00;0.00;;;3.90;99.90;;;;;;5011678;28;20248;-67
2023/01/16 07:51:07;;;;;;;0.00;0.00;;;3.90;99.90;;;;;;5011935;28;20183;-67
2023/01/16 07:53:32;;;;;;;0.00;0.00;;;3.90;99.90;;;;;;5011444;28;20221;-66
2023/01/16 07:56:01;;;;;;;0.00;0.00;;;3.90;99.90;;;;;;5011863;28;20179;-66
2023/01/16 07:58:27;;;;;;;0.00;0.00;;;3.90;99.90;;;;;;4994352;28;20179;-66
2023/01/16 08:00:54;;;;;;;0.00;0.00;;;4.00;99.90;;;;;;5013645;28;20186;-66
2023/01/16 08:03:21;;;;;;;0.00;0.00;;;4.00;99.90;;;;;;5015701;28;20182;-66
2023/01/16 08:05:47;;;;;;;0.00;0.00;;;4.00;99.90;;;;;;5015797;28;20193;-66
2023/01/16 08:08:13;;;;;;;0.00;0.00;;;4.00;99.90;;;;;;4998125;28;20644;-66
2023/01/16 08:10:39;;;;;;;0.00;0.00;;;4.00;99.90;;;;;;4997772;28;20232;-66
2023/01/16 08:13:05;;;;;;;0.00;0.00;;;4.00;99.90;;;;;;5015528;28;20297;-66
2023/01/16 08:15:30;;;;;;;0.00;0.00;;;4.00;99.90;;;;;;5015216;28;20175;-66
2023/01/16 08:17:56;;;;;;;0.00;0.00;;;4.10;99.90;;;;;;5015362;28;20175;-66
2023/01/16 08:20:22;;;;;;;0.00;0.00;;;4.10;99.90;;;;;;5015266;28;20261;-66
2023/01/16 08:22:52;;;;;;;0.00;0.00;;;4.20;99.90;;;;;;5015106;28;20637;-66
2023/01/16 08:25:22;;;;;;;0.00;0.00;;;4.20;99.90;;;;;;5015225;28;20541;-66
2023/01/16 08:27:48;;;;;;;0.00;0.00;;;4.20;99.90;;;;;;5015205;28;20589;-66
2023/01/16 08:30:15;;;;;;;0.00;0.00;;;4.20;99.90;;;;;;5014961;28;20325;-66
2023/01/16 08:32:41;;;;;;;0.00;0.00;;;4.30;99.90;;;;;;5015030;28;20175;-66
2023/01/16 08:35:08;;;;;;;0.00;0.00;;;4.30;99.90;;;;;;5015114;28;20597;-66
2023/01/16 08:37:33;;;;;;;0.00;0.00;;;4.40;99.90;;;;;;5014703;28;20181;-66
2023/01/16 08:39:59;;;;;;;0.00;0.00;;;4.50;99.90;;;;;;5017569;28;20277;-65
2023/01/16 08:53:23;;;;;;;0.00;0.00;;;4.90;99.90;;;;;;5014862;28;20704;-66
2023/01/16 08:55:49;;;;;;;0.00;0.00;;;4.90;99.90;;;;;;4997032;28;20183;-66
2023/01/16 08:58:14;;;;;;;0.00;0.00;;;4.90;99.90;;;;;;5014743;28;20171;-66
2023/01/16 09:00:40;;;;;;;0.00;0.00;;;4.90;99.90;;;;;;5014439;28;20201;-66
2023/01/16 09:03:06;;;;;;;0.00;0.00;;;4.80;99.90;;;;;;5014705;28;20183;-66
2023/01/16 09:05:32;;;;;;;0.00;0.00;;;4.80;99.90;;;;;;5014381;28;20534;-66
2023/01/16 09:07:57;;;;;;;0.00;0.00;;;4.80;99.90;;;;;;5014205;28;20208;-66
2023/01/16 09:10:24;;;;;;;0.00;0.00;;;4.70;99.90;;;;;;5014339;28;20268;-66
2023/01/16 09:15:34;;;;;;;0.00;0.00;;;4.70;99.90;;;;;;5014534;28;20193;-66
2023/01/16 09:18:00;;;;;;;0.10;0.08;;;4.70;99.90;;;;;;5014270;28;20545;-66
2023/01/16 09:20:26;;;;;;;0.00;0.00;;;4.60;99.90;;;;;;5014104;28;20182;-66
2023/01/16 09:22:59;;;;;;;0.00;0.00;;;4.60;99.90;;;;;;5014136;28;20206;-66
2023/01/16 09:25:25;;;;;;;0.00;0.00;;;4.60;99.90;;;;;;5013930;28;20171;-66
2023/01/16 09:27:51;;;;;;;0.00;0.00;;;4.60;99.90;;;;;;5013963;28;20651;-66
2023/01/16 09:30:16;;;;;;;0.00;0.00;;;4.60;99.90;;;;;;5014038;28;20257;-66
2023/01/16 09:32:45;;;;;;;0.00;0.00;;;4.60;99.90;;;;;;5013994;28;20236;-66
2023/01/16 09:35:10;;;;;;;0.00;0.00;;;4.70;99.90;;;;;;5013705;28;20175;-66
2023/01/16 09:37:36;;;;;;;0.00;0.00;;;4.70;99.90;;;;;;5013809;28;20182;-66
2023/01/16 09:40:02;;;;;;;0.00;0.00;;;4.70;99.90;;;;;;5013865;28;20677;-66
2023/01/16 09:45:30;;;;;;;0.00;0.00;;;4.70;99.90;;;;;;4994184;28;20615;-66
2023/01/16 09:48:11;;;;;;;0.00;0.00;;;4.80;99.90;;;;;;4992881;28;20175;-66
2023/01/16 09:50:48;;;;;;;0.00;0.00;;;4.80;99.90;;;;;;4993894;28;20310;-66
2023/01/16 09:59:16;;;;;;;0.00;0.00;;;4.80;99.90;;;;;;4994320;28;20190;-67
2023/01/16 10:01:47;;;;;;;0.00;0.00;;;4.80;99.90;;;;;;4993850;28;20709;-67
2023/01/16 10:04:21;;;;;;;0.00;0.00;;;4.80;99.90;;;;;;4993747;28;20187;-67
2023/01/16 10:07:32;;;;;;;0.00;0.00;;;4.90;99.90;;;;;;4993847;28;20179;-66
2023/01/16 10:09:58;;;;;;;0.00;0.00;;;4.90;99.90;;;;;;4993761;28;20219;-66
2023/01/16 10:12:35;;;;;;;0.00;0.00;;;4.90;99.90;;;;;;4993597;28;20194;-66
2023/01/16 10:15:19;;;;;;;0.00;0.00;;;4.90;99.90;;;;;;4993688;28;20194;-66
2023/01/16 10:18:15;;;;;;;0.00;0.00;;;4.90;99.90;;;;;;4993690;28;20626;-66
2023/01/16 10:21:00;;;;;;;0.00;0.00;;;4.90;99.90;;;;;;4970602;28;20195;-66
2023/01/16 10:23:54;;;;;;;0.00;0.00;;;4.90;99.90;;;;;;4993484;28;20262;-67
2023/01/16 10:26:28;;;;;;;0.00;0.00;;;5.00;99.90;;;;;;4993634;28;20223;-66
2023/01/16 10:29:17;;;;;;;0.00;0.00;;;5.00;99.90;;;;;;4993405;28;20556;-66
2023/01/16 10:31:51;;;;;;;0.10;0.10;;;5.00;99.90;;;;;;4993258;28;20180;-66
2023/01/16 10:34:52;;;;;;;0.00;0.00;;;5.10;99.90;;;;;;4993570;28;20184;-66
2023/01/16 10:37:18;;;;;;;0.30;0.30;;;5.20;99.90;;;;;;4993422;28;20548;-66
2023/01/16 10:39:44;;;;;;;0.00;0.00;;;5.20;99.90;;;;;;4993164;28;20175;-66
2023/01/16 10:51:07;;;;;;;0.00;0.00;;;5.50;99.90;;;;;;4989968;28;20698;-66
2023/01/16 10:53:35;;;;;;;0.00;0.00;;;5.60;99.90;;;;;;5012199;28;20743;-66
2023/01/16 10:56:01;;;;;;;0.00;0.00;;;5.60;99.90;;;;;;5012614;28;20202;-67
2023/01/16 10:58:31;;;;;;;0.00;0.00;;;5.70;99.90;;;;;;4995025;28;20181;-66
2023/01/16 11:01:04;;;;;;;0.00;0.00;;;5.80;99.90;;;;;;5012637;28;20182;-66
2023/01/16 11:03:40;;;;;;;0.00;0.00;;;5.80;99.60;;;;;;5012235;28;20190;-66
2023/01/16 11:06:17;;;;;;;0.00;0.00;;;5.80;99.70;;;;;;5012598;28;20170;-66
2023/01/16 11:08:46;;;;;;;0.00;0.00;;;5.90;99.30;;;;;;4994578;28;20324;-66
2023/01/16 11:19:28;;;;;;;0.00;0.00;;;6.20;99.00;;;;;;5012234;28;20217;-66
2023/01/16 11:22:00;;;;;;;0.20;0.20;;;6.20;98.60;;;;;;5012192;28;20179;-66
2023/01/16 11:24:35;;;;;;;0.00;0.00;;;6.30;98.70;;;;;;5012172;28;20265;-66
2023/01/16 11:27:02;;;;;;;0.00;0.00;;;6.30;98.30;;;;;;4994714;28;20248;-67
2023/01/16 11:29:34;;;;;;;0.00;0.00;;;6.30;98.00;;;;;;5012036;28;20666;-66
2023/01/16 11:32:07;;;;;;;0.00;0.00;;;6.40;97.60;;;;;;4994628;28;20218;-66
2023/01/16 11:34:33;;;;;;;0.00;0.00;;;6.40;97.80;;;;;;5012634;28;20199;-66
2023/01/16 11:37:03;;;;;;;0.00;0.00;;;6.50;97.50;;;;;;5018520;28;20190;-66
2023/01/16 11:39:31;;;;;;;0.00;0.00;;;6.50;97.40;;;;;;5000838;28;20183;-66
2023/01/16 11:41:59;;;;;;;0.00;0.00;;;6.60;97.70;;;;;;5018510;28;20642;-67
2023/01/16 11:47:20;;;;;;;0.10;0.10;;;6.60;97.60;;;;;;5018588;28;20185;-67
2023/01/16 11:49:49;;;;;;;0.00;0.00;;;6.60;97.60;;;;;;5018538;28;20268;-66
2023/01/16 11:52:29;;;;;;;0.00;0.00;;;6.50;97.90;;;;;;5018586;28;20171;-67
2023/01/16 11:55:01;;;;;;;0.00;0.00;;;6.60;98.00;;;;;;5018429;28;20257;-66
2023/01/16 11:57:26;;;;;;;0.00;0.00;;;6.60;98.00;;;;;;5018336;28;20229;-66
2023/01/16 12:00:23;;;;;;;0.00;0.00;;;6.70;97.70;;;;;;5018364;28;20179;-66
2023/01/16 12:03:07;;;;;;;0.00;0.00;;;6.80;98.00;;;;;;5011215;28;20232;-67
2023/01/16 12:05:57;;;;;;;0.00;0.00;;;6.80;98.00;;;;;;5018166;28;20186;-66
2023/01/16 12:08:41;;;;;;;0.00;0.00;;;6.90;98.20;;;;;;5018294;28;20225;-66
2023/01/16 12:11:12;;;;;;;0.00;0.00;;;6.90;98.50;;;;;;5018404;28;20197;-66
2023/01/16 12:14:18;;;;;;;0.00;0.00;;;6.80;98.90;;;;;;5018237;28;20265;-66
2023/01/16 12:17:08;;;;;;;0.00;0.00;;;6.80;99.00;;;;;;5018611;28;20236;-66
2023/01/16 12:19:52;;;;;;;0.00;0.00;;;6.80;99.50;;;;;;5018132;28;20175;-66
2023/01/16 12:22:36;;;;;;;0.00;0.00;;;6.70;99.60;;;;;;5018295;28;20175;-66
2023/01/16 12:25:25;;;;;;;0.00;0.00;;;6.70;99.70;;;;;;5018333;28;20206;-66
2023/01/16 12:28:25;;;;;;;0.00;0.00;;;6.80;99.90;;;;;;5018223;28;20178;-66
2023/01/16 12:34:16;;;;;;;0.30;0.10;;;6.80;99.90;;;;;;5018317;28;20677;-66
2023/01/16 12:37:00;;;;;;;0.00;0.00;;;6.80;99.90;;;;;;5018079;28;20277;-66
2023/01/16 12:39:48;;;;;;;0.00;0.00;;;6.80;99.90;;;;;;5018071;28;20170;-66
2023/01/16 12:45:16;;;;;;;0.00;0.00;;;6.80;99.90;;;;;;5018009;28;20202;-66
2023/01/16 12:48:07;;;;;;;0.00;0.00;;;6.90;99.90;;;;;;5014330;28;20535;-66
2023/01/16 12:50:47;;;;;;;0.00;0.00;;;6.90;99.90;;;;;;4997083;28;20218;-66
2023/01/16 12:53:43;;;;;;;0.00;0.00;;;6.90;99.90;;;;;;5014701;28;20258;-66
2023/01/16 12:56:38;;;;;;;0.00;0.00;;;6.90;99.90;;;;;;5014848;28;20301;-66
2023/01/16 12:59:27;;;;;;;0.00;0.00;;;6.90;99.90;;;;;;5014853;28;20178;-66
2023/01/16 13:01:59;;;;;;;0.00;0.00;;;7.00;99.90;;;;;;5014509;28;20210;-67
2023/01/16 13:04:39;;;;;;;0.00;0.00;;;7.10;99.90;;;;;;5014651;28;20174;-66
2023/01/16 13:07:06;;;;;;;0.00;0.00;;;7.10;99.90;;;;;;5014691;28;20214;-67
2023/01/16 13:09:45;;;;;;;0.00;0.00;;;7.10;99.90;;;;;;5014316;28;20223;-66
2023/01/16 13:15:26;;;;;;;0.00;0.00;;;7.10;99.90;;;;;;5014699;28;20209;-66
2023/01/16 13:18:15;;;;;;;0.00;0.00;;;7.10;99.90;;;;;;5014402;28;20236;-66
2023/01/16 13:20:43;;;;;;;0.00;0.00;;;7.20;99.90;;;;;;5014263;28;20262;-66
2023/01/16 13:23:14;;;;;;;0.00;0.00;;;7.30;99.90;;;;;;5014347;28;20595;-66
2023/01/16 13:25:44;;;;;;;0.00;0.00;;;7.30;99.90;;;;;;5014097;28;20182;-66
2023/01/16 13:28:15;;;;;;;0.00;0.00;;;7.30;99.90;;;;;;5014064;28;20171;-66
2023/01/16 13:30:41;;;;;;;0.00;0.00;;;7.30;99.90;;;;;;4996165;28;20219;-66
2023/01/16 13:33:10;;;;;;;0.00;0.00;;;7.30;99.90;;;;;;5014053;28;20259;-66
2023/01/16 13:36:13;;;;;;;0.00;0.00;;;7.30;99.90;;;;;;5013922;28;20179;-66
2023/01/16 13:39:08;;;;;;;0.00;0.00;;;7.30;99.90;;;;;;5013856;28;20569;-66
2023/01/16 13:41:40;;;;;;;0.00;0.00;;;7.30;99.90;;;;;;5013457;28;20210;-66
2023/01/16 13:47:13;;;;;;;0.00;0.00;;;7.30;99.90;;;;;;4992983;28;20749;-66
2023/01/16 13:49:39;;;;;;;0.00;0.00;;;7.30;99.90;;;;;;5013584;28;20217;-66
2023/01/16 13:52:19;;;;;;;0.00;0.00;;;7.30;99.90;;;;;;5013726;28;20222;-66
2023/01/16 13:54:48;;;;;;;0.00;0.00;;;7.30;99.90;;;;;;5013454;28;20242;-66
2023/01/16 13:57:22;;;;;;;0.00;0.00;;;7.20;99.90;;;;;;5013429;28;20182;-66
2023/01/16 13:59:57;;;;;;;0.00;0.00;;;7.20;99.90;;;;;;5013100;28;20181;-66
2023/01/16 14:02:22;;;;;;;0.00;0.00;;;7.10;99.90;;;;;;5013387;28;20510;-66
2023/01/16 14:05:06;;;;;;;0.00;0.00;;;7.10;99.90;;;;;;5013512;28;20190;-66
2023/01/16 14:10:58;;;;;;;0.00;0.00;;;7.10;99.90;;;;;;5013269;28;20214;-66
2023/01/16 14:13:31;;;;;;;0.00;0.00;;;7.20;99.90;;;;;;5013265;28;20615;-66
2023/01/16 14:16:30;;;;;;;0.00;0.00;;;7.20;99.90;;;;;;5012912;28;20533;-66
2023/01/16 14:18:55;;;;;;;0.00;0.00;;;7.30;99.90;;;;;;5013320;28;20262;-67
2023/01/16 14:21:25;;;;;;;0.00;0.00;;;7.40;99.90;;;;;;5012998;28;20274;-66
2023/01/16 14:24:01;;;;;;;0.00;0.00;;;7.40;99.90;;;;;;5013114;28;20178;-66
2023/01/16 14:26:42;;;;;;;0.00;0.00;;;7.40;99.90;;;;;;5012994;28;20244;-67
2023/01/16 14:29:27;;;;;;;0.00;0.00;;;7.30;99.90;;;;;;5013048;28;20190;-67
2023/01/16 14:32:06;;;;;;;0.00;0.00;;;7.20;99.90;;;;;;5012955;28;20214;-66